TimeEDT,TemperatureF,Dew PointF,Humidity,Sea Level PressureIn,VisibilityMPH,Wind Direction,Wind SpeedMPH,Gust SpeedMPH,PrecipitationIn,Events,Conditions,WindDirDegrees,DateUTC
12:15 AM,41.9,41.9,100,30.33,10.0,North,-9999.0,-,N/A,,Clear,0,2013-05-25 04:15:00
12:35 AM,41.5,41.5,100,30.33,10.0,North,-9999.0,-,N/A,,Clear,0,2013-05-25 04:35:00
12:55 AM,41.2,41.2,100,30.33,10.0,North,-9999.0,-,N/A,,Clear,0,2013-05-25 04:55:00
1:15 AM,40.8,40.8,100,30.33,10.0,North,-9999.0,-,N/A,,Clear,0,2013-05-25 05:15:00
1:35 AM,40.3,40.3,100,30.33,10.0,North,-9999.0,-,N/A,,Clear,0,2013-05-25 05:35:00
1:55 AM,39.9,39.9,100,30.33,7.0,North,-9999.0,-,N/A,,Clear,0,2013-05-25 05:55:00
2:15 AM,39.6,39.6,100,30.33,7.0,North,-9999.0,-,N/A,,Clear,0,2013-05-25 06:15:00
2:35 AM,39.4,39.4,100,30.33,7.0,North,-9999.0,-,N/A,,Clear,0,2013-05-25 06:35:00
2:55 AM,38.8,38.8,100,30.34,7.0,North,-9999.0,-,N/A,,Scattered Clouds,0,2013-05-25 06:55:00
3:15 AM,38.8,38.8,100,30.33,7.0,North,-9999.0,-,N/A,,Mostly Cloudy,0,2013-05-25 07:15:00
3:35 AM,38.7,38.7,100,30.34,5.0,North,-9999.0,-,N/A,,Overcast,0,2013-05-25 07:35:00
3:55 AM,38.7,38.7,100,30.35,0.8,North,-9999.0,-,N/A,,Overcast,0,2013-05-25 07:55:00
4:15 AM,39.2,39.2,100,30.35,1.0,North,-9999.0,-,N/A,,Overcast,0,2013-05-25 08:15:00
4:35 AM,38.3,38.3,100,30.35,0.8,North,-9999.0,-,N/A,,Overcast,0,2013-05-25 08:35:00
4:55 AM,38.7,38.7,100,30.37,0.8,North,-9999.0,-,N/A,,Overcast,0,2013-05-25 08:55:00
5:15 AM,39.6,39.6,100,30.36,0.5,North,-9999.0,-,N/A,Fog,Fog,0,2013-05-25 09:15:00
5:35 AM,39.7,39.7,100,30.37,0.2,North,-9999.0,-,N/A,Fog,Fog,0,2013-05-25 09:35:00
5:55 AM,39.7,39.7,100,30.37,0.5,North,-9999.0,-,N/A,Fog,Fog,0,2013-05-25 09:55:00
6:15 AM,39.7,39.7,100,30.37,0.5,North,-9999.0,-,N/A,Fog,Fog,0,2013-05-25 10:15:00
6:35 AM,39.7,39.7,100,30.38,0.2,North,-9999.0,-,N/A,Fog,Fog,0,2013-05-25 10:35:00
6:55 AM,40.1,40.1,100,30.39,0.2,North,-9999.0,-,N/A,Fog,Fog,0,2013-05-25 10:55:00
7:15 AM,40.3,40.3,100,30.39,0.2,North,-9999.0,-,N/A,Fog,Fog,0,2013-05-25 11:15:00
7:35 AM,40.8,40.8,100,30.40,0.2,North,-9999.0,-,N/A,Fog,Fog,0,2013-05-25 11:35:00
7:55 AM,41.0,41.0,100,30.40,1.5,North,-9999.0,-,N/A,,Overcast,0,2013-05-25 11:55:00
8:15 AM,41.9,41.9,100,30.41,2.5,North,-9999.0,-,N/A,,Overcast,0,2013-05-25 12:15:00
8:35 AM,42.6,42.6,100,30.42,10.0,North,-9999.0,-,N/A,,Mostly Cloudy,0,2013-05-25 12:35:00
8:55 AM,45.5,45.5,100,30.41,10.0,North,-9999.0,-,N/A,,Scattered Clouds,0,2013-05-25 12:55:00
9:15 AM,47.7,44.2,88,30.41,10.0,North,-9999.0,-,N/A,,Scattered Clouds,0,2013-05-25 13:15:00
9:35 AM,49.5,41.2,73,30.41,10.0,North,-9999.0,-,N/A,,Clear,0,2013-05-25 13:35:00
9:55 AM,51.1,39.7,65,30.42,10.0,North,-9999.0,-,N/A,,Clear,0,2013-05-25 13:55:00
10:15 AM,52.3,34.9,51,30.42,10.0,North,-9999.0,-,N/A,,Clear,0,2013-05-25 14:15:00
10:35 AM,53.6,36.1,52,30.42,10.0,North,-9999.0,-,N/A,,Clear,0,2013-05-25 14:35:00
10:55 AM,54.9,38.1,53,30.40,10.0,North,-9999.0,-,N/A,,Clear,0,2013-05-25 14:55:00
11:15 AM,57.0,37.8,49,30.41,10.0,North,-9999.0,-,N/A,,Clear,0,2013-05-25 15:15:00
11:35 AM,57.2,39.7,52,30.40,10.0,North,-9999.0,-,N/A,,Clear,0,2013-05-25 15:35:00
11:55 AM,57.9,38.3,48,30.39,10.0,North,-9999.0,-,N/A,,Clear,0,2013-05-25 15:55:00
12:15 PM,58.1,38.5,48,30.39,10.0,North,-9999.0,-,N/A,,Clear,0,2013-05-25 16:15:00
12:35 PM,58.8,40.1,50,30.38,10.0,North,-9999.0,-,N/A,,Clear,0,2013-05-25 16:35:00
12:55 PM,59.5,39.7,48,30.39,10.0,North,-9999.0,-,N/A,,Clear,0,2013-05-25 16:55:00
1:15 PM,60.6,41.2,49,30.38,10.0,North,-9999.0,-,N/A,,Clear,0,2013-05-25 17:15:00
1:35 PM,61.9,39.2,43,30.36,10.0,North,-9999.0,-,N/A,,Clear,0,2013-05-25 17:35:00
1:55 PM,63.7,38.8,40,30.35,10.0,North,-9999.0,-,N/A,,Clear,0,2013-05-25 17:55:00
2:15 PM,64.0,34.9,34,30.35,10.0,North,-9999.0,-,N/A,,Clear,0,2013-05-25 18:15:00
2:35 PM,63.3,36.5,37,30.35,10.0,North,-9999.0,-,N/A,,Clear,0,2013-05-25 18:35:00
2:55 PM,66.7,38.5,35,30.35,10.0,North,-9999.0,-,N/A,,Clear,0,2013-05-25 18:55:00
3:15 PM,64.9,38.7,38,30.34,10.0,North,-9999.0,-,N/A,,Clear,0,2013-05-25 19:15:00
3:35 PM,63.9,38.1,39,30.33,10.0,North,-9999.0,-,N/A,,Scattered Clouds,0,2013-05-25 19:35:00
3:55 PM,64.8,39.6,40,30.32,10.0,North,-9999.0,-,N/A,,Mostly Cloudy,0,2013-05-25 19:55:00
4:15 PM,65.5,40.5,40,30.32,10.0,North,-9999.0,-,N/A,,Scattered Clouds,0,2013-05-25 20:15:00
4:35 PM,65.8,40.6,40,30.32,10.0,North,-9999.0,-,N/A,,Clear,0,2013-05-25 20:35:00
4:55 PM,65.7,38.5,37,30.32,10.0,North,-9999.0,-,N/A,,Clear,0,2013-05-25 20:55:00
5:15 PM,63.9,37.9,38,30.31,10.0,North,-9999.0,-,N/A,,Clear,0,2013-05-25 21:15:00
5:35 PM,64.0,37.2,37,30.32,10.0,North,-9999.0,-,N/A,,Clear,0,2013-05-25 21:35:00
5:55 PM,64.2,38.7,39,30.32,10.0,North,-9999.0,-,N/A,,Clear,0,2013-05-25 21:55:00
6:15 PM,63.5,40.1,42,30.32,10.0,North,-9999.0,-,N/A,,Clear,0,2013-05-25 22:15:00
6:35 PM,62.6,39.2,42,30.31,10.0,North,-9999.0,-,N/A,,Clear,0,2013-05-25 22:35:00
6:55 PM,62.4,42.3,48,30.31,10.0,North,-9999.0,-,N/A,,Clear,0,2013-05-25 22:55:00
7:15 PM,61.9,44.4,53,30.31,10.0,North,-9999.0,-,N/A,,Clear,0,2013-05-25 23:15:00
7:35 PM,59.7,44.6,57,30.31,10.0,North,-9999.0,-,N/A,,Clear,0,2013-05-25 23:35:00
7:55 PM,58.6,43.2,56,30.31,10.0,North,-9999.0,-,N/A,,Clear,0,2013-05-25 23:55:00
8:15 PM,55.2,48.7,79,30.31,10.0,North,-9999.0,-,N/A,,Clear,0,2013-05-26 00:15:00
8:35 PM,53.1,48.6,85,30.31,10.0,North,-9999.0,-,N/A,,Clear,0,2013-05-26 00:35:00
8:55 PM,51.4,46.9,85,30.31,10.0,North,-9999.0,-,N/A,,Clear,0,2013-05-26 00:55:00
9:15 PM,50.2,46.6,87,30.30,10.0,North,-9999.0,-,N/A,,Clear,0,2013-05-26 01:15:00
9:35 PM,48.9,45.9,89,30.31,10.0,North,-9999.0,-,N/A,,Clear,0,2013-05-26 01:35:00
9:55 PM,48.2,46.4,93,30.31,10.0,North,-9999.0,-,N/A,,Clear,0,2013-05-26 01:55:00
10:15 PM,48.2,46.4,93,30.31,10.0,North,-9999.0,-,N/A,,Clear,0,2013-05-26 02:15:00
10:35 PM,47.5,46.0,95,30.31,10.0,North,-9999.0,-,N/A,,Clear,0,2013-05-26 02:35:00
10:55 PM,47.3,46.2,96,30.32,10.0,North,-9999.0,-,N/A,,Clear,0,2013-05-26 02:55:00
11:15 PM,46.8,45.7,96,30.32,10.0,North,-9999.0,-,N/A,,Clear,0,2013-05-26 03:15:00
11:35 PM,46.0,45.5,98,30.32,10.0,North,-9999.0,-,N/A,,Clear,0,2013-05-26 03:35:00
11:55 PM,45.5,45.1,99,30.33,10.0,North,-9999.0,-,N/A,,Clear,0,2013-05-26 03:55:00